Time;durP1;ratioP1;P1;durP2;ratioP2;P2;SDS_P1;SDS_P2;PMS_P1;PMS_P2;Temp;Humidity;BMP_temperature;BMP_pressure;BME280_temperature;BME280_humidity;BME280_pressure;Samples;Min_cycle;Max_cycle;Signal;HPM_P1;HPM_P2
2022/01/26 00:06:40;;;;;;;6.93;6.22;;;;;;;;;;6207191;23;20043;-42
2022/01/26 00:09:06;;;;;;;7.00;6.35;;;;;;;;;;6207507;23;20803;-40
2022/01/26 00:11:32;;;;;;;6.70;5.97;;;;;;;;;;6206747;23;20511;-40
2022/01/26 00:14:01;;;;;;;7.97;7.07;;;;;;;;;;6208820;23;20000;-40
2022/01/26 00:16:35;;;;;;;8.10;7.30;;;;;;;;;;6207438;23;20009;-40
2022/01/26 00:19:01;;;;;;;7.72;6.93;;;;;;;;;;6208275;23;20013;-40
2022/01/26 00:21:32;;;;;;;7.40;6.68;;;;;;;;;;6206618;23;20016;-40
2022/01/26 00:24:12;;;;;;;8.05;6.72;;;;;;;;;;6208067;23;20323;-40
2022/01/26 00:29:13;;;;;;;8.23;7.22;;;;;;;;;;6208063;23;20103;-40
2022/01/26 00:39:56;;;;;;;7.80;6.80;;;;;;;;;;6185642;23;20063;-40
2022/01/26 00:42:22;;;;;;;8.35;7.53;;;;;;;;;;6207406;23;20016;-40
2022/01/26 00:44:49;;;;;;;7.80;6.78;;;;;;;;;;6207450;23;20027;-41
2022/01/26 00:47:15;;;;;;;6.97;6.30;;;;;;;;;;6206559;23;20017;-40
2022/01/26 00:49:40;;;;;;;8.00;7.20;;;;;;;;;;6207745;23;20121;-40
2022/01/26 00:52:12;;;;;;;8.93;6.97;;;;;;;;;;6200392;23;20014;-40
2022/01/26 00:54:37;;;;;;;8.98;7.40;;;;;;;;;;6177179;23;20020;-40
2022/01/26 00:57:02;;;;;;;9.07;7.18;;;;;;;;;;6177051;23;20009;-40
2022/01/26 00:59:28;;;;;;;7.80;7.00;;;;;;;;;;6177509;23;20350;-40
2022/01/26 01:01:55;;;;;;;7.85;7.13;;;;;;;;;;6177123;23;20754;-40
2022/01/26 01:04:20;;;;;;;7.20;6.50;;;;;;;;;;6177359;23;20351;-40
2022/01/26 01:06:52;;;;;;;8.25;7.22;;;;;;;;;;6176893;23;20075;-40
2022/01/26 01:09:18;;;;;;;8.32;7.53;;;;;;;;;;6177326;23;20013;-40
2022/01/26 01:11:44;;;;;;;8.18;7.38;;;;;;;;;;6177280;23;20008;-40
2022/01/26 01:14:10;;;;;;;8.57;7.55;;;;;;;;;;6178074;23;20025;-39
2022/01/26 01:16:35;;;;;;;8.48;7.50;;;;;;;;;;6176252;23;20054;-40
2022/01/26 01:19:09;;;;;;;7.72;6.93;;;;;;;;;;6177539;23;20009;-39
2022/01/26 01:27:20;;;;;;;8.88;7.97;;;;;;;;;;6177285;23;20020;-40
2022/01/26 01:29:58;;;;;;;8.27;7.40;;;;;;;;;;6175871;23;20024;-39
2022/01/26 01:32:33;;;;;;;8.05;7.25;;;;;;;;;;6177178;23;20037;-40
2022/01/26 01:35:00;;;;;;;8.57;7.55;;;;;;;;;;6176912;23;20367;-41
2022/01/26 01:37:25;;;;;;;12.13;9.05;;;;;;;;;;6176844;23;20455;-40
2022/01/26 01:39:50;;;;;;;8.68;7.85;;;;;;;;;;6176990;23;20020;-40
2022/01/26 01:42:16;;;;;;;8.63;7.70;;;;;;;;;;6176605;23;20428;-40
2022/01/26 01:44:41;;;;;;;8.00;7.30;;;;;;;;;;6177033;23;20081;-42
2022/01/26 01:47:07;;;;;;;8.65;7.78;;;;;;;;;;6177455;23;20398;-40
2022/01/26 01:49:33;;;;;;;8.85;7.97;;;;;;;;;;6176199;23;20024;-40
2022/01/26 01:52:02;;;;;;;8.95;8.02;;;;;;;;;;6201313;23;20064;-40
2022/01/26 01:54:27;;;;;;;8.98;8.13;;;;;;;;;;6205977;23;20375;-40
2022/01/26 01:56:56;;;;;;;7.78;7.05;;;;;;;;;;6207067;23;20127;-40
2022/01/26 01:59:31;;;;;;;9.02;7.35;;;;;;;;;;6206735;23;20013;-39
2022/01/26 02:01:57;;;;;;;8.57;7.53;;;;;;;;;;6206676;23;20027;-40
2022/01/26 02:04:23;;;;;;;9.05;8.15;;;;;;;;;;6206991;23;20454;-40
2022/01/26 02:06:48;;;;;;;8.23;7.32;;;;;;;;;;6206552;23;20021;-42
2022/01/26 02:09:13;;;;;;;10.18;7.90;;;;;;;;;;6206527;23;20016;-40
2022/01/26 02:11:46;;;;;;;7.75;7.03;;;;;;;;;;6206825;23;20338;-40
2022/01/26 02:14:18;;;;;;;9.25;7.63;;;;;;;;;;6207201;23;20008;-40
2022/01/26 03:00:18;;;;;;;8.27;7.43;;;;;;;;;;6208166;23;20016;-40
2022/01/26 03:04:51;;;;;;;8.15;7.32;;;;;;;;;;6189238;23;20017;-40
2022/01/26 03:07:37;;;;;;;7.80;7.07;;;;;;;;;;6207406;23;20024;-40
2022/01/26 03:10:09;;;;;;;8.38;7.43;;;;;;;;;;6208093;23;20712;-40
2022/01/26 03:12:43;;;;;;;7.80;7.10;;;;;;;;;;6208049;23;20035;-40
2022/01/26 03:15:36;;;;;;;7.78;6.97;;;;;;;;;;6208382;23;20001;-40
2022/01/26 03:20:37;;;;;;;7.10;6.40;;;;;;;;;;6207760;23;20083;-40
2022/01/26 03:36:20;;;;;;;7.78;6.93;;;;;;;;;;6207337;23;20147;-40
2022/01/26 03:38:50;;;;;;;7.38;6.68;;;;;;;;;;6207802;23;20039;-40
2022/01/26 03:43:42;;;;;;;7.75;6.93;;;;;;;;;;6207412;23;20036;-40
2022/01/26 03:46:07;;;;;;;7.68;6.97;;;;;;;;;;6207861;23;20008;-40
2022/01/26 03:48:32;;;;;;;7.68;6.95;;;;;;;;;;6207609;23;20020;-39
2022/01/26 03:50:59;;;;;;;8.30;7.50;;;;;;;;;;6207757;23;20079;-40
2022/01/26 03:53:24;;;;;;;7.95;7.15;;;;;;;;;;6207251;23;20065;-40
2022/01/26 03:55:49;;;;;;;7.53;6.82;;;;;;;;;;6207824;23;20008;-40
2022/01/26 03:58:14;;;;;;;8.18;6.35;;;;;;;;;;6206719;23;20070;-40
2022/01/26 04:00:40;;;;;;;7.70;6.85;;;;;;;;;;6208127;23;20666;-40
2022/01/26 04:03:05;;;;;;;6.25;5.65;;;;;;;;;;6208032;23;20009;-40
2022/01/26 04:05:30;;;;;;;7.63;6.57;;;;;;;;;;6207463;23;20116;-40
2022/01/26 04:08:01;;;;;;;7.35;6.55;;;;;;;;;;6206321;23;20104;-40
2022/01/26 04:10:46;;;;;;;8.40;7.50;;;;;;;;;;6206106;23;20009;-40
2022/01/26 04:13:12;;;;;;;6.93;6.15;;;;;;;;;;6207441;23;20013;-40
2022/01/26 04:15:38;;;;;;;7.90;6.88;;;;;;;;;;6207716;23;20080;-40
2022/01/26 04:18:06;;;;;;;6.82;6.20;;;;;;;;;;6207261;23;20115;-40
2022/01/26 04:20:37;;;;;;;7.18;6.47;;;;;;;;;;6206866;23;20019;-40
2022/01/26 04:25:39;;;;;;;7.13;6.43;;;;;;;;;;6206537;23;20068;-40
2022/01/26 04:28:08;;;;;;;7.72;7.03;;;;;;;;;;6206926;23;20028;-40
2022/01/26 04:30:33;;;;;;;7.13;6.43;;;;;;;;;;6206697;23;20516;-40
2022/01/26 04:33:03;;;;;;;8.52;6.97;;;;;;;;;;6206996;23;20009;-40
2022/01/26 04:35:28;;;;;;;;;;;;;;;;;;6207893;23;20016;-40
2022/01/26 04:38:17;;;;;;;6.63;5.90;;;;;;;;;;6207485;23;19984;-40
2022/01/26 04:43:26;;;;;;;5.60;5.10;;;;;;;;;;6207763;23;20016;-42
2022/01/26 04:45:52;;;;;;;8.15;6.97;;;;;;;;;;6207390;23;20009;-40
2022/01/26 04:48:19;;;;;;;6.57;5.97;;;;;;;;;;6205803;23;20059;-40
2022/01/26 04:50:44;;;;;;;6.60;6.00;;;;;;;;;;6206959;23;20024;-40
2022/01/26 04:53:09;;;;;;;7.00;6.30;;;;;;;;;;6207523;23;20058;-40
2022/01/26 04:55:34;;;;;;;6.78;6.07;;;;;;;;;;6206534;23;20012;-40
2022/01/26 04:58:00;;;;;;;6.88;6.20;;;;;;;;;;6207620;23;20005;-40
2022/01/26 05:00:26;;;;;;;7.63;6.15;;;;;;;;;;6206715;23;20012;-40
2022/01/26 05:02:51;;;;;;;6.70;6.10;;;;;;;;;;6207574;23;20054;-40
2022/01/26 05:05:16;;;;;;;6.35;5.72;;;;;;;;;;6206053;23;20058;-40
2022/01/26 05:07:41;;;;;;;6.35;5.78;;;;;;;;;;6205059;23;20477;-40
2022/01/26 05:10:07;;;;;;;5.95;5.45;;;;;;;;;;6207012;23;20457;-40
2022/01/26 05:12:34;;;;;;;6.40;5.80;;;;;;;;;;6206460;23;20501;-40
2022/01/26 05:14:59;;;;;;;9.80;6.40;;;;;;;;;;6205949;23;20164;-40
2022/01/26 05:17:24;;;;;;;9.30;5.38;;;;;;;;;;6206804;23;20032;-40
2022/01/26 05:19:55;;;;;;;6.55;5.95;;;;;;;;;;6207067;23;20100;-40
2022/01/26 05:22:20;;;;;;;6.13;5.57;;;;;;;;;;6206806;23;20039;-41
2022/01/26 05:24:47;;;;;;;6.20;5.60;;;;;;;;;;6206905;23;20027;-40
2022/01/26 05:27:12;;;;;;;6.80;6.20;;;;;;;;;;6206303;23;20027;-40
2022/01/26 05:29:38;;;;;;;6.75;6.07;;;;;;;;;;6206740;23;20013;-40
2022/01/26 05:32:03;;;;;;;5.65;5.10;;;;;;;;;;6207350;23;20020;-40
2022/01/26 05:34:28;;;;;;;7.18;6.47;;;;;;;;;;6205979;23;20829;-40
2022/01/26 05:36:54;;;;;;;6.72;5.97;;;;;;;;;;6207314;23;20390;-40
2022/01/26 05:39:19;;;;;;;6.72;6.13;;;;;;;;;;6206649;23;20009;-40
2022/01/26 05:41:44;;;;;;;6.38;5.78;;;;;;;;;;6206571;23;20001;-40
2022/01/26 05:44:10;;;;;;;6.40;5.80;;;;;;;;;;6205733;23;20009;-40
2022/01/26 05:46:42;;;;;;;7.07;6.28;;;;;;;;;;6205922;23;20488;-41
2022/01/26 05:49:09;;;;;;;7.15;6.38;;;;;;;;;;6206574;23;20013;-40
2022/01/26 05:51:35;;;;;;;5.60;5.10;;;;;;;;;;6206298;23;20484;-40
2022/01/26 05:54:04;;;;;;;6.90;5.60;;;;;;;;;;6208827;23;20023;-40
2022/01/26 05:56:30;;;;;;;5.82;5.32;;;;;;;;;;6208393;23;20437;-40
2022/01/26 05:58:55;;;;;;;7.88;6.63;;;;;;;;;;6182403;23;20449;-40
2022/01/26 06:01:21;;;;;;;7.00;6.32;;;;;;;;;;6208285;23;20034;-40
2022/01/26 06:03:46;;;;;;;6.78;6.07;;;;;;;;;;6208944;23;20009;-40
2022/01/26 06:06:12;;;;;;;7.35;6.50;;;;;;;;;;6208451;23;20012;-40
2022/01/26 06:08:37;;;;;;;6.32;5.65;;;;;;;;;;6208071;23;20020;-41
2022/01/26 06:11:04;;;;;;;7.20;6.30;;;;;;;;;;6208688;23;20008;-40
2022/01/26 06:13:29;;;;;;;6.90;6.20;;;;;;;;;;6207988;23;20017;-40
2022/01/26 06:15:54;;;;;;;7.22;5.95;;;;;;;;;;6209132;23;20075;-40
2022/01/26 06:18:19;;;;;;;5.65;5.15;;;;;;;;;;6207999;23;20012;-40
2022/01/26 06:20:45;;;;;;;6.47;5.88;;;;;;;;;;6208977;23;20016;-42
2022/01/26 06:23:10;;;;;;;5.97;5.38;;;;;;;;;;6208415;23;20009;-42
2022/01/26 06:25:35;;;;;;;6.25;5.65;;;;;;;;;;6208121;23;20012;-40
2022/01/26 06:28:06;;;;;;;7.40;6.63;;;;;;;;;;6208031;23;20103;-40
2022/01/26 06:30:31;;;;;;;6.57;6.00;;;;;;;;;;6208347;23;20040;-40
2022/01/26 06:32:56;;;;;;;6.03;5.45;;;;;;;;;;6208598;23;20351;-41
2022/01/26 06:35:22;;;;;;;5.65;5.20;;;;;;;;;;6208256;23;20017;-40
2022/01/26 06:37:47;;;;;;;6.45;5.85;;;;;;;;;;6208785;23;20067;-40
2022/01/26 06:40:12;;;;;;;5.75;5.15;;;;;;;;;;6207688;23;20009;-40
2022/01/26 06:42:51;;;;;;;6.78;6.15;;;;;;;;;;6208430;23;20083;-40
2022/01/26 06:45:19;;;;;;;6.97;6.18;;;;;;;;;;6207646;23;20012;-40
2022/01/26 06:50:13;;;;;;;7.03;6.32;;;;;;;;;;6208737;23;20009;-40
2022/01/26 06:52:38;;;;;;;6.10;5.50;;;;;;;;;;6209145;23;20011;-40
2022/01/26 06:55:04;;;;;;;6.60;5.90;;;;;;;;;;6208870;23;20018;-40
2022/01/26 06:57:29;;;;;;;6.57;5.72;;;;;;;;;;6207450;23;20397;-40
2022/01/26 06:59:54;;;;;;;6.45;5.85;;;;;;;;;;6208847;23;20013;-40
2022/01/26 07:02:20;;;;;;;6.38;5.78;;;;;;;;;;6206808;23;20013;-40
2022/01/26 07:04:45;;;;;;;6.35;5.75;;;;;;;;;;6208296;23;20015;-40
2022/01/26 07:07:10;;;;;;;6.57;5.95;;;;;;;;;;6181106;23;20021;-40
2022/01/26 07:09:36;;;;;;;6.75;6.15;;;;;;;;;;6207336;23;20004;-40
2022/01/26 07:12:01;;;;;;;9.02;5.95;;;;;;;;;;6207850;23;20009;-40
2022/01/26 07:20:11;;;;;;;6.22;5.63;;;;;;;;;;6207975;23;20031;-40
2022/01/26 07:22:36;;;;;;;8.15;5.80;;;;;;;;;;6195658;23;20012;-40
2022/01/26 07:25:02;;;;;;;6.43;5.82;;;;;;;;;;6207890;23;20024;-40
2022/01/26 07:27:27;;;;;;;6.53;5.90;;;;;;;;;;6207180;23;20047;-40
2022/01/26 07:29:53;;;;;;;6.65;5.65;;;;;;;;;;6207356;23;20042;-40
2022/01/26 07:32:18;;;;;;;7.05;6.30;;;;;;;;;;6207504;23;20021;-40
2022/01/26 07:34:45;;;;;;;6.30;5.72;;;;;;;;;;6208248;23;20005;-40
2022/01/26 07:37:13;;;;;;;6.70;6.10;;;;;;;;;;6156272;23;20196;-40
2022/01/26 07:39:49;;;;;;;6.82;6.05;;;;;;;;;;6208062;23;20016;-40
2022/01/26 07:42:14;;;;;;;6.07;5.45;;;;;;;;;;6206895;23;20481;-40
2022/01/26 07:44:40;;;;;;;6.50;5.88;;;;;;;;;;6206169;23;20009;-40
2022/01/26 07:47:05;;;;;;;8.27;5.85;;;;;;;;;;6206196;23;20032;-40
2022/01/26 07:49:31;;;;;;;6.25;5.70;;;;;;;;;;6203888;23;20012;-42
2022/01/26 07:51:56;;;;;;;7.43;5.45;;;;;;;;;;6203736;23;20031;-40
2022/01/26 07:54:22;;;;;;;8.10;6.07;;;;;;;;;;6205253;23;20008;-41
2022/01/26 07:56:47;;;;;;;6.35;5.55;;;;;;;;;;6206328;23;20016;-41
2022/01/26 07:59:13;;;;;;;6.35;5.72;;;;;;;;;;6205310;23;20012;-40
2022/01/26 08:01:38;;;;;;;6.63;6.03;;;;;;;;;;6207638;23;20008;-40
2022/01/26 08:04:04;;;;;;;9.68;6.53;;;;;;;;;;6207388;23;20435;-40
2022/01/26 08:06:29;;;;;;;8.00;6.82;;;;;;;;;;6204846;23;20459;-40
2022/01/26 08:08:55;;;;;;;7.40;6.53;;;;;;;;;;6204471;23;20932;-40
2022/01/26 08:11:20;;;;;;;8.05;5.90;;;;;;;;;;6206620;23;20034;-40
2022/01/26 08:13:45;;;;;;;6.18;5.43;;;;;;;;;;6208156;23;20101;-40
2022/01/26 08:16:10;;;;;;;6.65;6.05;;;;;;;;;;6206610;23;20008;-40
2022/01/26 08:18:36;;;;;;;7.25;6.55;;;;;;;;;;6207163;23;20009;-40
2022/01/26 08:21:05;;;;;;;7.28;6.57;;;;;;;;;;6180495;23;20009;-40
2022/01/26 08:23:31;;;;;;;6.68;6.07;;;;;;;;;;6207360;23;20040;-40
2022/01/26 08:25:56;;;;;;;7.60;6.53;;;;;;;;;;6206716;23;20608;-40
2022/01/26 08:28:28;;;;;;;6.13;5.53;;;;;;;;;;6206882;23;20024;-40
2022/01/26 08:30:53;;;;;;;6.75;6.05;;;;;;;;;;6207629;23;20401;-40
2022/01/26 08:33:19;;;;;;;6.72;6.03;;;;;;;;;;6206416;23;20075;-40
2022/01/26 08:35:46;;;;;;;7.05;6.10;;;;;;;;;;6207717;23;20088;-40
2022/01/26 08:38:11;;;;;;;7.55;6.53;;;;;;;;;;6207792;23;20422;-40
2022/01/26 08:40:36;;;;;;;5.90;5.40;;;;;;;;;;6206407;23;20011;-40
2022/01/26 08:43:02;;;;;;;6.95;6.25;;;;;;;;;;6207371;23;20462;-41
2022/01/26 08:45:27;;;;;;;7.47;6.60;;;;;;;;;;6206371;23;20012;-40
2022/01/26 08:47:53;;;;;;;6.43;5.68;;;;;;;;;;6207070;23;20021;-40
2022/01/26 08:50:18;;;;;;;7.82;5.82;;;;;;;;;;6205471;23;20020;-40
2022/01/26 08:52:43;;;;;;;8.13;6.47;;;;;;;;;;6207778;23;20008;-41
2022/01/26 08:55:10;;;;;;;6.78;5.93;;;;;;;;;;6204295;23;20036;-40
2022/01/26 08:57:35;;;;;;;6.50;5.57;;;;;;;;;;6202035;23;20012;-40
2022/01/26 09:00:01;;;;;;;6.68;6.07;;;;;;;;;;6204894;23;20009;-40
2022/01/26 09:02:26;;;;;;;6.65;5.68;;;;;;;;;;6204072;23;20013;-40
2022/01/26 09:04:51;;;;;;;6.43;5.78;;;;;;;;;;6204253;23;20028;-40
2022/01/26 09:07:19;;;;;;;6.82;6.25;;;;;;;;;;6203298;23;20427;-40
2022/01/26 09:09:45;;;;;;;6.30;5.80;;;;;;;;;;6201940;23;20508;-40
2022/01/26 09:12:16;;;;;;;6.80;5.88;;;;;;;;;;6204703;23;20095;-40
2022/01/26 09:14:42;;;;;;;6.50;5.90;;;;;;;;;;6203777;23;20633;-40
2022/01/26 09:17:08;;;;;;;6.13;5.53;;;;;;;;;;6204088;23;20016;-39
2022/01/26 09:19:33;;;;;;;6.95;5.60;;;;;;;;;;6202680;23;20000;-40
2022/01/26 09:22:01;;;;;;;6.70;5.03;;;;;;;;;;6199880;23;20103;-39
2022/01/26 09:24:28;;;;;;;5.70;5.13;;;;;;;;;;6200303;23;20074;-40
2022/01/26 09:26:53;;;;;;;5.93;5.30;;;;;;;;;;6200069;23;20021;-40
2022/01/26 09:29:18;;;;;;;6.18;5.63;;;;;;;;;;6201370;23;20024;-40
2022/01/26 09:31:47;;;;;;;6.10;5.50;;;;;;;;;;6202044;23;20009;-41
2022/01/26 09:34:12;;;;;;;5.80;5.30;;;;;;;;;;6202118;23;20031;-40
2022/01/26 09:36:38;;;;;;;5.45;4.95;;;;;;;;;;6201780;23;20477;-40
2022/01/26 09:39:03;;;;;;;7.95;5.20;;;;;;;;;;6202147;23;20544;-40
2022/01/26 09:41:28;;;;;;;6.80;5.03;;;;;;;;;;6202155;23;20546;-40
2022/01/26 09:43:54;;;;;;;5.00;4.50;;;;;;;;;;6202032;23;20020;-40
2022/01/26 09:46:19;;;;;;;5.65;5.15;;;;;;;;;;6201751;23;20036;-41
2022/01/26 09:48:44;;;;;;;7.00;4.90;;;;;;;;;;6202289;23;20025;-40
2022/01/26 09:51:13;;;;;;;6.00;5.40;;;;;;;;;;6201773;23;20024;-40
2022/01/26 09:53:38;;;;;;;6.00;5.30;;;;;;;;;;6203152;23;20675;-40
2022/01/26 09:56:03;;;;;;;5.35;4.85;;;;;;;;;;6202068;23;20009;-40
2022/01/26 09:58:29;;;;;;;4.65;4.20;;;;;;;;;;6202305;23;20013;-40
2022/01/26 10:00:58;;;;;;;6.05;5.47;;;;;;;;;;6201790;23;20016;-40
2022/01/26 10:03:28;;;;;;;6.50;5.88;;;;;;;;;;6201266;23;20012;-40
2022/01/26 10:05:53;;;;;;;4.95;4.53;;;;;;;;;;6202752;23;21033;-40
2022/01/26 10:18:50;;;;;;;6.25;4.97;;;;;;;;;;6200963;23;20008;-40
2022/01/26 10:21:15;;;;;;;5.15;4.75;;;;;;;;;;6201768;23;20431;-41
2022/01/26 10:23:41;;;;;;;5.65;5.15;;;;;;;;;;6201366;23;20012;-42
2022/01/26 10:26:12;;;;;;;5.80;5.30;;;;;;;;;;6202628;23;20486;-40
2022/01/26 10:28:40;;;;;;;5.18;4.68;;;;;;;;;;6201697;23;20020;-41
2022/01/26 10:31:31;;;;;;;5.40;4.93;;;;;;;;;;6202075;23;20013;-40
2022/01/26 10:33:57;;;;;;;4.75;4.43;;;;;;;;;;6193421;23;20013;-40
2022/01/26 10:36:22;;;;;;;5.30;4.80;;;;;;;;;;6201186;23;20024;-40
2022/01/26 10:39:01;;;;;;;5.03;4.63;;;;;;;;;;6203141;23;20008;-40
2022/01/26 10:41:27;;;;;;;5.75;5.25;;;;;;;;;;6203210;23;20071;-40
2022/01/26 10:43:55;;;;;;;5.78;5.13;;;;;;;;;;6203546;23;20012;-40
2022/01/26 10:46:31;;;;;;;5.00;4.60;;;;;;;;;;6202921;23;20009;-40
2022/01/26 10:49:15;;;;;;;5.55;5.15;;;;;;;;;;6203457;23;20071;-40
2022/01/26 10:54:12;;;;;;;4.85;4.40;;;;;;;;;;6205119;23;20012;-41
2022/01/26 10:56:38;;;;;;;5.15;4.65;;;;;;;;;;6204338;23;20011;-41
2022/01/26 10:59:03;;;;;;;5.35;4.82;;;;;;;;;;6203341;23;20005;-40
2022/01/26 11:01:29;;;;;;;5.50;5.00;;;;;;;;;;6203772;23;20012;-40
2022/01/26 11:03:54;;;;;;;5.07;4.68;;;;;;;;;;6204370;23;20040;-40
2022/01/26 11:06:20;;;;;;;5.15;4.65;;;;;;;;;;6202866;23;20296;-41
2022/01/26 11:08:46;;;;;;;5.72;4.88;;;;;;;;;;6204116;23;20744;-40
2022/01/26 11:11:22;;;;;;;4.60;4.15;;;;;;;;;;6202639;23;20305;-40
2022/01/26 11:13:47;;;;;;;4.95;4.50;;;;;;;;;;6203339;23;20016;-40
2022/01/26 11:16:13;;;;;;;4.68;4.28;;;;;;;;;;6204085;23;20011;-40
2022/01/26 11:18:52;;;;;;;5.10;4.70;;;;;;;;;;6202339;23;20082;-40
2022/01/26 11:21:30;;;;;;;4.60;4.22;;;;;;;;;;6200489;23;20103;-40
2022/01/26 11:24:14;;;;;;;4.28;3.97;;;;;;;;;;6201377;23;20008;-40
2022/01/26 11:26:41;;;;;;;4.78;4.38;;;;;;;;;;6202494;23;20086;-39
2022/01/26 11:29:17;;;;;;;5.45;4.88;;;;;;;;;;6203280;23;20023;-39
2022/01/26 11:31:43;;;;;;;5.05;4.65;;;;;;;;;;6203032;23;20481;-40
2022/01/26 11:34:10;;;;;;;4.70;4.30;;;;;;;;;;6204015;23;20012;-40
2022/01/26 11:36:35;;;;;;;4.22;3.83;;;;;;;;;;6202611;23;20004;-40
2022/01/26 11:42:15;;;;;;;4.45;4.05;;;;;;;;;;6204159;23;20013;-40
2022/01/26 11:42:18;;;;;;;4.43;4.13;;;;;;;;;;6202640;23;20008;-39
2022/01/26 11:47:32;;;;;;;5.15;4.65;;;;;;;;;;6201238;23;20167;-39
2022/01/26 11:50:03;;;;;;;3.78;3.47;;;;;;;;;;6203232;23;20012;-39
2022/01/26 11:52:35;;;;;;;11.55;4.70;;;;;;;;;;6200913;23;20032;-40
2022/01/26 11:55:01;;;;;;;5.10;4.45;;;;;;;;;;6204184;23;19996;-42
2022/01/26 11:57:46;;;;;;;4.18;3.88;;;;;;;;;;6202495;23;20026;-40
2022/01/26 12:00:17;;;;;;;4.78;4.40;;;;;;;;;;6203153;23;20111;-40
2022/01/26 12:02:55;;;;;;;4.53;4.15;;;;;;;;;;6205835;23;20008;-39
2022/01/26 12:05:23;;;;;;;5.28;4.78;;;;;;;;;;6206566;23;20086;-40
2022/01/26 12:07:52;;;;;;;4.57;4.18;;;;;;;;;;6205588;23;20032;-40
2022/01/26 12:10:29;;;;;;;4.72;4.35;;;;;;;;;;6205102;23;20004;-40
2022/01/26 12:12:58;;;;;;;4.65;4.30;;;;;;;;;;6203562;23;20383;-40
2022/01/26 12:15:25;;;;;;;5.10;4.60;;;;;;;;;;6202204;23;20481;-39
2022/01/26 12:37:15;;;;;;;4.80;4.40;;;;;;;;;;6205112;23;20004;-40
2022/01/26 12:43:08;;;;;;;4.65;3.90;;;;;;;;;;6202600;23;20056;-40
2022/01/26 12:45:26;;;;;;;3.95;3.58;;;;;;;;;;6196135;23;20009;-40
2022/01/26 12:47:53;;;;;;;4.38;3.97;;;;;;;;;;6203647;23;20032;-39
2022/01/26 12:50:18;;;;;;;6.07;4.07;;;;;;;;;;6202189;23;20603;-41
2022/01/26 12:52:45;;;;;;;3.95;3.65;;;;;;;;;;6201878;23;20443;-40
2022/01/26 12:55:19;;;;;;;5.03;4.38;;;;;;;;;;6203713;23;20015;-41
2022/01/26 12:57:44;;;;;;;4.60;4.20;;;;;;;;;;6202791;23;20009;-40
2022/01/26 13:00:09;;;;;;;4.53;4.13;;;;;;;;;;6202829;23;20009;-39
2022/01/26 13:02:35;;;;;;;4.50;4.10;;;;;;;;;;6201961;23;20019;-40
2022/01/26 13:05:03;;;;;;;3.95;3.65;;;;;;;;;;6202372;23;20023;-39
2022/01/26 13:07:29;;;;;;;3.93;3.60;;;;;;;;;;6201229;23;20059;-42
2022/01/26 13:09:54;;;;;;;3.97;3.58;;;;;;;;;;6202932;23;20009;-40
2022/01/26 13:12:29;;;;;;;3.80;3.50;;;;;;;;;;6200184;23;20008;-40
2022/01/26 13:15:07;;;;;;;3.70;3.40;;;;;;;;;;6201780;23;20253;-39
2022/01/26 13:17:39;;;;;;;4.35;3.95;;;;;;;;;;6201909;23;20454;-40
2022/01/26 13:26:02;;;;;;;2.67;2.47;;;;;;;;;;6198343;23;20347;-40
2022/01/26 13:31:18;;;;;;;3.33;3.13;;;;;;;;;;6200451;23;20017;-40
2022/01/26 13:49:18;;;;;;;2.35;2.20;;;;;;;;;;6201052;23;20043;-40
2022/01/26 13:52:17;;;;;;;2.78;2.28;;;;;;;;;;6183865;23;20043;-39
2022/01/26 13:57:36;;;;;;;2.00;1.90;;;;;;;;;;6202041;23;20043;-39
2022/01/26 13:59:57;;;;;;;2.30;2.10;;;;;;;;;;6200622;23;20008;-40
2022/01/26 14:02:25;;;;;;;2.08;1.98;;;;;;;;;;6201652;23;20013;-40
2022/01/26 14:04:50;;;;;;;2.33;2.13;;;;;;;;;;6202079;23;20008;-40
2022/01/26 14:07:16;;;;;;;2.55;2.00;;;;;;;;;;6200414;23;20087;-41
2022/01/26 14:09:44;;;;;;;4.38;2.80;;;;;;;;;;6202249;23;20009;-40
2022/01/26 14:12:16;;;;;;;2.90;2.65;;;;;;;;;;6201052;23;20013;-40
2022/01/26 14:14:44;;;;;;;3.50;3.20;;;;;;;;;;6202733;23;20032;-40
2022/01/26 14:17:17;;;;;;;2.85;2.55;;;;;;;;;;6203652;23;20482;-40
2022/01/26 14:20:08;;;;;;;2.20;2.00;;;;;;;;;;6204441;23;20032;-40
2022/01/26 14:27:41;;;;;;;2.28;2.08;;;;;;;;;;6203566;23;20029;-39
2022/01/26 15:48:45;;;;;;;2.80;2.55;;;;;;;;;;6205772;23;20568;-40
2022/01/26 15:58:33;;;;;;;3.40;2.28;;;;;;;;;;6203482;23;20023;-40
2022/01/26 16:20:12;;;;;;;3.38;2.67;;;;;;;;;;6209314;23;20048;-43
2022/01/26 16:44:19;;;;;;;3.58;2.80;;;;;;;;;;6202503;23;20458;-40
2022/01/26 17:37:45;;;;;;;3.65;3.38;;;;;;;;;;6207390;23;20008;-40
2022/01/26 17:47:03;;;;;;;3.13;2.83;;;;;;;;;;6182088;23;20122;-40
2022/01/26 18:16:33;;;;;;;2.75;2.55;;;;;;;;;;6205978;23;20044;-39
2022/01/26 18:32:57;;;;;;;2.70;2.50;;;;;;;;;;6203776;23;20109;-40
2022/01/26 18:46:25;;;;;;;2.97;2.78;;;;;;;;;;6203979;23;20019;-40
2022/01/26 18:51:32;;;;;;;2.75;2.55;;;;;;;;;;6203202;23;20039;-38
2022/01/26 18:53:57;;;;;;;3.30;2.67;;;;;;;;;;6204002;23;20009;-39
2022/01/26 18:56:24;;;;;;;3.00;2.70;;;;;;;;;;6203699;23;20095;-39
2022/01/26 18:58:49;;;;;;;2.90;2.67;;;;;;;;;;6204511;23;20069;-39
2022/01/26 19:01:14;;;;;;;2.95;2.75;;;;;;;;;;6204108;23;20016;-40
2022/01/26 19:03:39;;;;;;;5.05;2.97;;;;;;;;;;6206767;23;20046;-39
2022/01/26 19:06:05;;;;;;;2.72;2.53;;;;;;;;;;6205685;23;20066;-39
2022/01/26 19:08:31;;;;;;;2.92;2.58;;;;;;;;;;6205506;23;20111;-40
2022/01/26 19:10:57;;;;;;;2.67;2.47;;;;;;;;;;6178702;23;20019;-45
2022/01/26 19:13:27;;;;;;;3.50;3.20;;;;;;;;;;6203906;23;20091;-43
2022/01/26 19:21:18;;;;;;;2.90;2.70;;;;;;;;;;4792223;27;10001321;-46
2022/01/26 19:26:27;;;;;;;3.42;3.13;;;;;;;;;;4985179;28;20054;-48
2022/01/26 19:28:59;;;;;;;3.47;3.17;;;;;;;;;;4993799;28;20042;-48
2022/01/26 19:42:58;;;;;;;3.75;3.45;;;;;;;;;;4981577;28;20770;-46
2022/01/26 19:45:22;;;;;;;3.97;3.63;;;;;;;;;;4985249;28;20031;-49
2022/01/26 19:52:57;;;;;;;3.88;3.42;;;;;;;;;;4980694;28;20055;-47
2022/01/26 19:55:24;;;;;;;6.03;4.28;;;;;;;;;;4979780;28;20031;-46
2022/01/26 19:57:49;;;;;;;3.78;3.53;;;;;;;;;;4988151;28;20023;-45
2022/01/26 20:00:15;;;;;;;4.50;4.07;;;;;;;;;;4980567;28;20038;-46
2022/01/26 20:02:40;;;;;;;4.75;4.35;;;;;;;;;;4987634;28;20046;-46
2022/01/26 20:05:11;;;;;;;5.00;4.53;;;;;;;;;;4978137;28;20121;-47
2022/01/26 20:07:36;;;;;;;4.40;4.00;;;;;;;;;;4987931;28;20034;-46
2022/01/26 20:10:04;;;;;;;4.65;4.18;;;;;;;;;;4984022;28;20993;-46
2022/01/26 20:12:51;;;;;;;4.55;4.15;;;;;;;;;;4983580;28;20053;-45
2022/01/26 20:15:18;;;;;;;4.65;4.28;;;;;;;;;;4989581;28;20492;-46
2022/01/26 20:17:43;;;;;;;4.55;4.15;;;;;;;;;;4986849;28;20113;-45
2022/01/26 20:20:12;;;;;;;4.70;4.30;;;;;;;;;;4979758;28;20039;-47
2022/01/26 20:22:37;;;;;;;4.57;4.18;;;;;;;;;;4978750;28;20610;-45
2022/01/26 20:25:03;;;;;;;4.95;4.45;;;;;;;;;;4982208;28;20149;-46
2022/01/26 20:27:28;;;;;;;4.57;4.20;;;;;;;;;;4982686;28;20058;-46
2022/01/26 20:30:02;;;;;;;5.00;4.55;;;;;;;;;;4983159;28;20500;-45
2022/01/26 20:32:28;;;;;;;4.90;4.50;;;;;;;;;;4993353;28;20046;-45
2022/01/26 20:34:53;;;;;;;4.47;4.07;;;;;;;;;;4979796;28;20459;-46
2022/01/26 20:37:19;;;;;;;5.57;4.68;;;;;;;;;;4972840;28;20562;-46
2022/01/26 20:42:05;;;;;;;4.82;4.43;;;;;;;;;;4666438;27;9999873;-44
2022/01/26 20:44:31;;;;;;;4.68;4.28;;;;;;;;;;5004548;28;20104;-46
2022/01/26 20:46:56;;;;;;;5.07;4.57;;;;;;;;;;5001129;28;20053;-45
2022/01/26 20:49:21;;;;;;;6.45;4.97;;;;;;;;;;4998944;28;20565;-46
2022/01/26 20:51:47;;;;;;;7.10;4.55;;;;;;;;;;5004199;28;20064;-45
2022/01/26 20:54:13;;;;;;;5.38;4.88;;;;;;;;;;5003192;28;20041;-46
2022/01/26 20:56:39;;;;;;;6.50;4.90;;;;;;;;;;5000309;28;20505;-48
2022/01/26 20:59:04;;;;;;;4.68;4.28;;;;;;;;;;4990422;28;20046;-48
2022/01/26 21:01:29;;;;;;;5.03;4.55;;;;;;;;;;5006530;28;20407;-49
2022/01/26 21:03:55;;;;;;;4.95;4.57;;;;;;;;;;5000549;28;20042;-45
2022/01/26 21:06:20;;;;;;;5.30;4.80;;;;;;;;;;4998196;28;20041;-48
2022/01/26 21:08:45;;;;;;;5.63;5.13;;;;;;;;;;4997718;28;20034;-49
2022/01/26 21:11:11;;;;;;;5.70;5.00;;;;;;;;;;5003706;28;20034;-46
2022/01/26 21:13:37;;;;;;;5.82;5.30;;;;;;;;;;5000960;28;20430;-48
2022/01/26 21:16:03;;;;;;;5.57;5.05;;;;;;;;;;5019255;28;20088;-44
2022/01/26 21:18:31;;;;;;;5.63;5.05;;;;;;;;;;5011392;28;20953;-45
2022/01/26 21:20:56;;;;;;;5.55;5.05;;;;;;;;;;5014297;28;20056;-47
2022/01/26 21:23:21;;;;;;;5.53;5.03;;;;;;;;;;5017204;28;20037;-45
2022/01/26 21:25:47;;;;;;;5.35;4.85;;;;;;;;;;5002817;28;20113;-44
2022/01/26 21:28:12;;;;;;;5.70;5.20;;;;;;;;;;5007919;28;20081;-45
2022/01/26 21:30:37;;;;;;;5.60;5.10;;;;;;;;;;5018529;28;20038;-47
2022/01/26 21:33:03;;;;;;;5.20;4.70;;;;;;;;;;5018292;28;20117;-45
2022/01/26 21:35:29;;;;;;;5.95;5.45;;;;;;;;;;5007676;28;20069;-46
2022/01/26 21:37:54;;;;;;;5.70;4.97;;;;;;;;;;5022813;28;20186;-44
2022/01/26 21:40:19;;;;;;;5.35;4.85;;;;;;;;;;5017928;28;20128;-45
2022/01/26 21:42:44;;;;;;;6.07;4.90;;;;;;;;;;5017497;28;20042;-45
2022/01/26 21:45:10;;;;;;;6.28;5.72;;;;;;;;;;5009882;28;20044;-45
2022/01/26 21:47:35;;;;;;;6.38;4.78;;;;;;;;;;5012505;28;20038;-47
2022/01/26 21:50:01;;;;;;;6.03;5.25;;;;;;;;;;5016623;28;20037;-45
2022/01/26 21:52:28;;;;;;;5.50;5.00;;;;;;;;;;4663104;28;10000328;-48
2022/01/26 21:54:53;;;;;;;6.13;5.53;;;;;;;;;;4998562;28;20053;-45
2022/01/26 21:57:18;;;;;;;5.95;5.45;;;;;;;;;;4993203;28;20026;-44
2022/01/26 21:59:44;;;;;;;5.70;5.03;;;;;;;;;;4997014;28;20050;-45
2022/01/26 22:02:10;;;;;;;6.03;5.43;;;;;;;;;;5002880;28;20030;-47